createdAt,value
2023-03-02T00:01:54.512Z,100132.10
2023-03-02T00:04:23.804Z,100127.18
2023-03-02T00:06:58.569Z,100132.59
2023-03-02T00:09:27.673Z,100130.44
2023-03-02T00:11:56.744Z,100127.96
2023-03-02T00:14:25.930Z,100122.79
2023-03-02T00:16:54.280Z,100123.83
2023-03-02T00:19:22.933Z,100125.35
2023-03-02T00:21:51.420Z,100124.74
2023-03-02T00:24:20.048Z,100123.89
2023-03-02T00:26:48.360Z,100117.38
2023-03-02T00:29:16.763Z,100115.40
2023-03-02T00:31:45.094Z,100112.79
2023-03-02T00:34:13.425Z,100112.63
2023-03-02T00:36:42.055Z,100105.66
2023-03-02T00:39:10.893Z,100105.46
2023-03-02T00:41:39.292Z,100108.84
2023-03-02T00:44:07.662Z,100106.61
2023-03-02T00:46:36.980Z,100108.80
2023-03-02T00:49:05.497Z,100106.98
2023-03-02T00:51:34.241Z,100106.65
2023-03-02T00:54:04.681Z,100101.88
2023-03-02T00:56:35.354Z,100101.55
2023-03-02T00:59:06.320Z,100096.86
2023-03-02T01:01:38.023Z,100098.04
2023-03-02T01:04:07.102Z,100098.83
2023-03-02T01:06:35.543Z,100102.52
2023-03-02T01:09:04.251Z,100101.70
2023-03-02T01:11:33.299Z,100099.63
2023-03-02T01:14:02.549Z,100098.48
2023-03-02T01:16:31.377Z,100098.62
2023-03-02T01:19:01.029Z,100095.86
2023-03-02T01:21:29.503Z,100094.19
2023-03-02T01:23:57.998Z,100087.66
2023-03-02T01:26:26.918Z,100086.17
2023-03-02T01:28:55.868Z,100083.95
2023-03-02T01:31:24.986Z,100082.23
2023-03-02T01:33:53.697Z,100081.16
2023-03-02T01:36:22.720Z,100080.41
2023-03-02T01:38:51.783Z,100074.55
2023-03-02T01:41:20.180Z,100072.07
2023-03-02T01:43:48.937Z,100072.11
2023-03-02T01:46:24.792Z,100067.94
2023-03-02T01:49:02.370Z,100066.13
2023-03-02T01:51:55.017Z,100068.23
2023-03-02T01:54:23.542Z,100071.17
2023-03-02T01:56:58.917Z,100069.36
2023-03-02T01:59:28.553Z,100067.95
2023-03-02T02:01:57.293Z,100066.66
2023-03-02T02:04:27.505Z,100069.52
2023-03-02T02:07:01.528Z,100068.88
2023-03-02T02:09:39.403Z,100065.98
2023-03-02T02:12:19.159Z,100062.73
2023-03-02T02:14:47.562Z,100062.19
2023-03-02T02:17:18.840Z,100057.20
2023-03-02T02:20:06.470Z,100055.13
2023-03-02T02:22:44.782Z,100056.18
2023-03-02T02:25:33.670Z,100055.24
2023-03-02T02:28:09.807Z,100055.33
2023-03-02T02:30:38.368Z,100051.77
2023-03-02T02:33:06.754Z,100054.63
2023-03-02T02:35:36.714Z,100055.77
2023-03-02T02:38:06.510Z,100054.86
2023-03-02T02:40:43.050Z,100062.40
2023-03-02T02:43:13.903Z,100058.92
2023-03-02T02:45:42.735Z,100058.18
2023-03-02T02:48:15.549Z,100061.52
2023-03-02T02:50:44.773Z,100061.40
2023-03-02T02:53:25.290Z,100057.10
2023-03-02T02:55:55.307Z,100055.52
2023-03-02T02:58:35.515Z,100057.02
2023-03-02T03:01:06.014Z,100049.15
2023-03-02T03:03:38.247Z,100049.19
2023-03-02T03:06:14.835Z,100045.82
2023-03-02T03:08:46.168Z,100046.34
2023-03-02T03:11:23.642Z,100048.33
2023-03-02T03:14:08.738Z,100048.14
2023-03-02T03:16:39.573Z,100053.95
2023-03-02T03:19:26.820Z,100054.52
2023-03-02T03:21:57.145Z,100052.12
2023-03-02T03:24:26.945Z,100054.82
2023-03-02T03:26:55.951Z,100057.78
2023-03-02T03:29:25.405Z,100060.17
2023-03-02T03:31:56.583Z,100060.81
2023-03-02T03:34:29.642Z,100057.61
2023-03-02T03:37:02.249Z,100059.50
2023-03-02T03:39:34.168Z,100062.63
2023-03-02T03:42:02.593Z,100056.69
2023-03-02T03:44:31.108Z,100056.61
2023-03-02T03:46:59.689Z,100060.20
2023-03-02T03:49:28.479Z,100060.34
2023-03-02T03:51:57.165Z,100059.60
2023-03-02T03:54:25.605Z,100056.57
2023-03-02T03:56:54.949Z,100054.13
2023-03-02T03:59:24.356Z,100051.81
2023-03-02T04:02:00.298Z,100050.92
2023-03-02T04:04:42.673Z,100052.92
2023-03-02T04:07:17.110Z,100045.73
2023-03-02T04:09:47.712Z,100048.12
2023-03-02T04:12:22.285Z,100041.67
2023-03-02T04:14:54.177Z,100041.77
2023-03-02T04:17:23.082Z,100042.30
2023-03-02T04:19:52.673Z,100045.36
2023-03-02T04:22:21.596Z,100043.80
2023-03-02T04:24:50.408Z,100046.52
2023-03-02T04:27:19.065Z,100045.27
2023-03-02T04:29:48.584Z,100044.62
2023-03-02T04:32:17.426Z,100046.80
2023-03-02T04:34:49.416Z,100042.41
2023-03-02T04:37:17.681Z,100043.63
2023-03-02T04:39:50.306Z,100047.79
2023-03-02T04:42:21.280Z,100049.64
2023-03-02T04:44:49.883Z,100053.40
2023-03-02T04:47:18.185Z,100056.73
2023-03-02T04:49:47.422Z,100060.25
2023-03-02T04:52:17.995Z,100063.19
2023-03-02T04:54:46.678Z,100062.56
2023-03-02T04:57:15.347Z,100064.54
2023-03-02T04:59:44.005Z,100066.64
2023-03-02T05:02:12.750Z,100068.03
2023-03-02T05:04:42.469Z,100068.36
2023-03-02T05:07:11.122Z,100072.78
2023-03-02T05:09:44.060Z,100076.73
2023-03-02T05:12:12.416Z,100079.40
2023-03-02T05:14:40.621Z,100081.20
2023-03-02T05:17:10.149Z,100079.11
2023-03-02T05:19:39.196Z,100076.48
2023-03-02T05:22:07.759Z,100078.02
2023-03-02T05:24:36.599Z,100077.66
2023-03-02T05:27:06.031Z,100080.83
2023-03-02T05:29:34.487Z,100082.09
2023-03-02T05:32:02.774Z,100081.77
2023-03-02T05:34:33.988Z,100084.73
2023-03-02T05:37:02.247Z,100089.07
2023-03-02T05:39:33.029Z,100085.51
2023-03-02T05:42:01.436Z,100088.51
2023-03-02T05:44:29.868Z,100090.68
2023-03-02T05:46:58.613Z,100093.10
2023-03-02T05:49:27.042Z,100094.62
2023-03-02T05:51:57.547Z,100096.20
2023-03-02T05:54:26.133Z,100105.18
2023-03-02T05:56:56.585Z,100105.96
2023-03-02T05:59:24.971Z,100106.08
2023-03-02T06:01:59.052Z,100101.52
2023-03-02T06:04:27.511Z,100099.45
2023-03-02T06:06:56.337Z,100100.17
2023-03-02T06:09:24.823Z,100101.24
2023-03-02T06:13:29.858Z,100106.46
2023-03-02T06:15:59.011Z,100103.66
2023-03-02T06:18:28.190Z,100098.50
2023-03-02T06:20:56.692Z,100099.96
2023-03-02T06:23:25.333Z,100095.81
2023-03-02T06:25:53.810Z,100099.47
2023-03-02T06:28:22.516Z,100097.55
2023-03-02T06:30:51.069Z,100097.31
2023-03-02T06:33:21.642Z,100097.20
2023-03-02T06:35:50.650Z,100096.37
2023-03-02T06:38:19.483Z,100093.91
2023-03-02T06:40:48.230Z,100103.13
2023-03-02T06:43:17.171Z,100101.89
2023-03-02T06:45:45.529Z,100101.95
2023-03-02T06:48:13.928Z,100104.59
2023-03-02T06:50:43.141Z,100103.56
2023-03-02T06:53:12.561Z,100099.13
2023-03-02T06:55:40.817Z,100098.91
2023-03-02T06:58:13.404Z,100099.32
2023-03-02T07:00:41.727Z,100093.44
2023-03-02T07:03:13.001Z,100100.40
2023-03-02T07:05:41.481Z,100098.39
2023-03-02T07:08:14.550Z,100097.37
2023-03-02T07:10:43.740Z,100093.27
2023-03-02T07:13:12.154Z,100093.63
2023-03-02T07:15:45.469Z,100090.27
2023-03-02T07:18:13.723Z,100086.26
2023-03-02T07:20:42.103Z,100085.59
2023-03-02T07:23:10.664Z,100086.23
2023-03-02T07:25:38.994Z,100084.11
2023-03-02T07:28:08.170Z,100093.14
2023-03-02T07:30:36.534Z,100086.73
2023-03-02T07:33:05.110Z,100085.15
2023-03-02T07:35:34.231Z,100084.45
2023-03-02T07:38:02.630Z,100084.31
2023-03-02T07:40:32.488Z,100082.14
2023-03-02T07:43:00.930Z,100080.73
2023-03-02T07:45:30.816Z,100082.55
2023-03-02T07:48:00.180Z,100084.45
2023-03-02T07:50:28.551Z,100084.20
2023-03-02T07:52:59.161Z,100084.42
2023-03-02T07:55:28.721Z,100078.52
2023-03-02T07:57:58.265Z,100076.77
2023-03-02T08:00:27.009Z,100074.67
2023-03-02T08:02:55.381Z,100074.08
2023-03-02T08:05:29.003Z,100073.53
2023-03-02T08:07:57.384Z,100070.38
2023-03-02T08:10:26.625Z,100068.46
2023-03-02T08:12:54.843Z,100064.16
2023-03-02T08:15:23.670Z,100058.73
2023-03-02T08:17:53.198Z,100056.23
2023-03-02T08:20:22.128Z,100054.05
2023-03-02T08:22:52.416Z,100052.89
2023-03-02T08:25:20.702Z,100045.66
2023-03-02T08:27:49.060Z,100047.18
2023-03-02T08:30:22.706Z,100050.96
2023-03-02T08:32:51.253Z,100053.35
2023-03-02T08:35:19.664Z,100054.27
2023-03-02T08:37:49.241Z,100051.86
2023-03-02T08:40:18.822Z,100049.89
2023-03-02T08:42:47.282Z,100049.85
2023-03-02T08:45:21.669Z,100049.92
2023-03-02T08:47:53.266Z,100051.25
2023-03-02T08:50:21.638Z,100043.66
2023-03-02T08:52:52.263Z,100042.16
2023-03-02T08:55:22.036Z,100043.29
2023-03-02T08:57:50.346Z,100047.10
2023-03-02T09:00:19.699Z,100041.23
2023-03-02T09:02:48.226Z,100043.56
2023-03-02T09:05:16.706Z,100041.20
2023-03-02T09:07:45.438Z,100040.49
2023-03-02T09:10:17.439Z,100037.15
2023-03-02T09:12:46.588Z,100030.81
2023-03-02T09:15:14.954Z,100033.15
2023-03-02T09:17:43.465Z,100034.11
2023-03-02T09:20:12.186Z,100033.55
2023-03-02T09:22:42.671Z,100030.22
2023-03-02T09:25:11.018Z,100029.70
2023-03-02T09:27:39.709Z,100026.48
2023-03-02T09:30:10.276Z,100026.83
2023-03-02T09:32:38.810Z,100030.53
2023-03-02T09:35:07.748Z,100028.91
2023-03-02T09:37:39.083Z,100029.81
2023-03-02T09:40:22.406Z,100026.86
2023-03-02T09:42:59.627Z,100027.54
2023-03-02T09:46:04.153Z,100023.56
2023-03-02T09:48:35.372Z,100023.37
2023-03-02T09:51:15.028Z,100024.00
2023-03-02T09:53:43.293Z,100020.35
2023-03-02T09:56:17.231Z,100017.88
2023-03-02T09:59:12.316Z,100011.33
2023-03-02T10:01:46.381Z,100007.61
2023-03-02T10:04:56.741Z,100005.41
2023-03-02T10:07:30.633Z,100012.86
2023-03-02T10:10:18.006Z,100008.33
2023-03-02T10:13:03.642Z,100008.64
2023-03-02T10:15:41.381Z,100007.38
2023-03-02T10:18:16.159Z,100005.15
2023-03-02T10:20:54.912Z,100010.63
2023-03-02T10:23:46.571Z,100008.95
2023-03-02T10:26:23.995Z,100010.17
2023-03-02T10:29:05.990Z,100015.11
2023-03-02T10:31:35.087Z,100009.56
2023-03-02T10:34:03.701Z,100007.53
2023-03-02T10:36:38.438Z,100007.94
2023-03-02T10:39:08.472Z,100000.92
2023-03-02T10:41:41.847Z,99996.95
2023-03-02T10:44:22.368Z,99994.23
2023-03-02T10:46:53.943Z,99997.69
2023-03-02T10:49:25.450Z,99992.59
2023-03-02T10:52:00.336Z,99988.23
2023-03-02T10:54:30.564Z,99993.32
2023-03-02T10:57:01.623Z,99991.20
2023-03-02T10:59:33.077Z,99988.05
2023-03-02T11:02:12.785Z,99984.98
2023-03-02T11:04:41.179Z,99986.27
2023-03-02T11:07:20.059Z,99988.27
2023-03-02T11:10:18.012Z,99984.70
2023-03-02T11:12:47.773Z,99984.09
2023-03-02T11:15:26.585Z,99983.01
2023-03-02T11:18:12.344Z,99978.59
2023-03-02T11:20:42.815Z,99986.38
2023-03-02T11:23:38.008Z,99982.48
2023-03-02T11:26:18.464Z,99978.81
2023-03-02T11:28:54.987Z,99990.88
2023-03-02T11:31:30.510Z,99986.31
2023-03-02T11:34:11.783Z,99982.34
2023-03-02T11:36:55.024Z,99972.95
2023-03-02T11:39:25.555Z,99973.14
2023-03-02T11:41:54.670Z,99971.40
2023-03-02T11:44:24.959Z,99967.54
2023-03-02T11:46:59.320Z,99967.36
2023-03-02T11:49:40.991Z,99966.33
2023-03-02T11:52:30.498Z,99966.08
2023-03-02T11:55:20.391Z,99959.81
2023-03-02T12:00:41.773Z,99956.04
2023-03-02T12:03:16.586Z,99952.07
2023-03-02T12:06:16.807Z,99946.83
2023-03-02T12:08:46.179Z,99944.25
2023-03-02T12:11:17.820Z,99946.12
2023-03-02T12:13:58.363Z,99939.08
2023-03-02T12:16:33.096Z,99938.42
2023-03-02T12:19:15.199Z,99933.76
2023-03-02T12:21:57.759Z,99932.75
2023-03-02T12:24:28.686Z,99927.33
2023-03-02T12:27:25.783Z,99927.50
2023-03-02T12:30:09.934Z,99926.42
2023-03-02T12:32:38.425Z,99924.70
2023-03-02T12:35:12.174Z,99925.36
2023-03-02T12:37:53.442Z,99921.55
2023-03-02T12:40:41.346Z,99922.61
2023-03-02T12:43:19.933Z,99918.46
2023-03-02T12:45:54.282Z,99913.10
2023-03-02T12:48:32.209Z,99910.39
2023-03-02T12:51:02.180Z,99908.09
2023-03-02T12:53:30.679Z,99902.66
2023-03-02T12:56:03.810Z,99897.73
2023-03-02T12:58:34.253Z,99897.70
2023-03-02T13:01:03.169Z,99896.11
2023-03-02T13:03:33.176Z,99895.67
2023-03-02T13:06:11.313Z,99893.34
2023-03-02T13:08:39.740Z,99897.01
2023-03-02T13:11:08.618Z,99894.89
2023-03-02T13:13:40.711Z,99885.34
2023-03-02T13:16:23.036Z,99887.00
2023-03-02T13:18:56.848Z,99882.85
2023-03-02T13:21:33.960Z,99879.67
2023-03-02T13:24:02.649Z,99874.41
2023-03-02T13:26:33.352Z,99875.95
2023-03-02T13:29:14.789Z,99869.96
2023-03-02T13:31:43.525Z,99870.59
2023-03-02T13:34:29.148Z,99865.17
2023-03-02T13:36:57.545Z,99864.80
2023-03-02T13:39:29.281Z,99859.25
2023-03-02T13:41:59.330Z,99855.20
2023-03-02T13:44:32.076Z,99855.31
2023-03-02T13:47:00.962Z,99855.86
2023-03-02T13:49:35.873Z,99852.89
2023-03-02T13:52:08.402Z,99853.23
2023-03-02T13:54:37.387Z,99848.84
2023-03-02T13:57:05.645Z,99846.80
2023-03-02T13:59:37.291Z,99841.86
2023-03-02T14:02:19.833Z,99847.27
2023-03-02T14:04:48.557Z,99846.34
2023-03-02T14:07:18.424Z,99841.17
2023-03-02T14:09:47.080Z,99845.66
2023-03-02T14:12:27.502Z,99840.76
2023-03-02T14:14:57.620Z,99843.97
2023-03-02T14:17:26.146Z,99841.45
2023-03-02T14:19:56.677Z,99842.85
2023-03-02T14:22:26.393Z,99836.86
2023-03-02T14:24:55.663Z,99835.29
2023-03-02T14:27:26.070Z,99830.02
2023-03-02T14:29:54.449Z,99829.08
2023-03-02T14:32:23.090Z,99824.73
2023-03-02T14:34:51.652Z,99821.86
2023-03-02T14:37:21.956Z,99820.48
2023-03-02T14:39:55.607Z,99822.48
2023-03-02T14:42:24.338Z,99824.02
2023-03-02T14:44:53.055Z,99823.15
2023-03-02T14:47:22.042Z,99823.10
2023-03-02T14:49:50.899Z,99821.83
2023-03-02T14:52:21.618Z,99819.59
2023-03-02T14:54:52.158Z,99816.27
2023-03-02T14:57:25.372Z,99815.41
2023-03-02T14:59:54.049Z,99816.45
2023-03-02T15:02:26.085Z,99818.77
2023-03-02T15:05:15.204Z,99820.31
2023-03-02T15:07:44.271Z,99818.02
2023-03-02T15:10:18.616Z,99819.69
2023-03-02T15:12:46.955Z,99818.83
2023-03-02T15:15:17.211Z,99818.80
2023-03-02T15:17:45.783Z,99820.41
2023-03-02T15:20:17.235Z,99822.98
2023-03-02T15:22:47.032Z,99826.83
2023-03-02T15:25:15.619Z,99829.59
2023-03-02T15:27:44.286Z,99827.02
2023-03-02T15:30:12.959Z,99828.52
2023-03-02T15:32:41.282Z,99829.52
2023-03-02T15:35:10.243Z,99825.23
2023-03-02T15:37:40.107Z,99824.54
2023-03-02T15:40:09.901Z,99832.71
2023-03-02T15:42:38.433Z,99831.04
2023-03-02T15:45:07.274Z,99832.64
2023-03-02T15:47:37.676Z,99830.48
2023-03-02T15:50:06.379Z,99828.88
2023-03-02T15:52:35.054Z,99832.16
2023-03-02T15:55:03.968Z,99823.57
2023-03-02T15:57:39.552Z,99825.35
2023-03-02T16:00:13.620Z,99825.30
2023-03-02T16:02:43.551Z,99827.41
2023-03-02T16:05:14.018Z,99828.57
2023-03-02T16:07:43.462Z,99826.61
2023-03-02T16:10:15.529Z,99831.76
2023-03-02T16:12:44.182Z,99828.91
2023-03-02T16:15:15.160Z,99834.68
2023-03-02T16:17:44.164Z,99835.30
2023-03-02T16:20:13.294Z,99838.21
2023-03-02T16:22:41.642Z,99840.20
2023-03-02T16:25:10.027Z,99837.97
2023-03-02T16:27:38.757Z,99842.04
2023-03-02T16:30:11.042Z,99842.41
2023-03-02T16:32:40.704Z,99843.83
2023-03-02T16:35:09.332Z,99838.49
2023-03-02T16:37:38.157Z,99842.65
2023-03-02T16:40:07.281Z,99844.06
2023-03-02T16:42:41.894Z,99849.88
2023-03-02T16:45:10.726Z,99856.20
2023-03-02T16:47:39.586Z,99855.71
2023-03-02T16:50:08.717Z,99852.05
2023-03-02T16:52:37.319Z,99855.06
2023-03-02T16:55:09.175Z,99851.50
2023-03-02T16:57:37.535Z,99853.67
2023-03-02T17:00:08.700Z,99856.27
2023-03-02T17:02:37.626Z,99856.30
2023-03-02T17:05:11.927Z,99856.77
2023-03-02T17:07:41.279Z,99855.52
2023-03-02T17:10:12.639Z,99855.70
2023-03-02T17:12:42.490Z,99856.87
2023-03-02T17:15:13.521Z,99862.68
2023-03-02T17:17:42.936Z,99863.71
2023-03-02T17:20:12.774Z,99867.92
2023-03-02T17:22:41.093Z,99864.58
2023-03-02T17:25:11.790Z,99866.33
2023-03-02T17:27:40.826Z,99868.98
2023-03-02T17:30:14.027Z,99866.62
2023-03-02T17:32:42.505Z,99864.17
2023-03-02T17:35:11.588Z,99862.75
2023-03-02T17:37:41.964Z,99860.58
2023-03-02T17:40:14.465Z,99861.48
2023-03-02T17:42:43.849Z,99858.02
2023-03-02T17:45:19.960Z,99859.67
2023-03-02T17:47:52.078Z,99861.88
2023-03-02T17:50:21.531Z,99859.75
2023-03-02T17:52:50.118Z,99863.05
2023-03-02T17:55:18.667Z,99861.19
2023-03-02T17:57:46.985Z,99859.99
2023-03-02T18:00:17.438Z,99858.91
2023-03-02T18:02:46.433Z,99855.44
2023-03-02T18:05:15.336Z,99854.98
2023-03-02T18:07:44.089Z,99853.17
2023-03-02T18:10:14.610Z,99849.72
2023-03-02T18:12:43.053Z,99855.42
2023-03-02T18:15:11.997Z,99853.83
2023-03-02T18:17:40.610Z,99851.50
2023-03-02T18:20:10.162Z,99851.29
2023-03-02T18:22:38.517Z,99852.48
2023-03-02T18:25:07.444Z,99860.09
2023-03-02T18:29:42.571Z,99859.44
2023-03-02T18:32:13.814Z,99851.36
2023-03-02T18:34:43.538Z,99850.48
2023-03-02T18:37:11.919Z,99850.08
2023-03-02T18:39:40.621Z,99851.69
2023-03-02T18:42:10.506Z,99855.00
2023-03-02T18:44:40.150Z,99853.76
2023-03-02T18:47:08.836Z,99853.17
2023-03-02T18:49:38.503Z,99854.64
2023-03-02T18:52:07.008Z,99859.17
2023-03-02T18:54:36.363Z,99860.77
2023-03-02T18:57:07.554Z,99862.39
2023-03-02T18:59:36.913Z,99860.56
2023-03-02T19:02:10.201Z,99863.58
2023-03-02T19:04:40.294Z,99862.68
2023-03-02T19:07:09.152Z,99863.83
2023-03-02T19:09:37.536Z,99863.34
2023-03-02T19:12:09.754Z,99864.64
2023-03-02T19:14:39.860Z,99864.17
2023-03-02T19:17:08.677Z,99862.14
2023-03-02T19:19:37.563Z,99863.10
2023-03-02T19:22:06.633Z,99860.61
2023-03-02T19:24:35.449Z,99861.45
2023-03-02T19:27:03.925Z,99862.02
2023-03-02T19:29:34.440Z,99860.31
2023-03-02T19:32:02.938Z,99860.44
2023-03-02T19:34:31.918Z,99861.30
2023-03-02T19:37:00.298Z,99859.08
2023-03-02T19:39:28.568Z,99856.33
2023-03-02T19:41:57.010Z,99854.95
2023-03-02T19:44:26.082Z,99854.30
2023-03-02T19:46:54.613Z,99856.63
2023-03-02T19:49:22.840Z,99849.23
2023-03-02T19:51:51.206Z,99849.95
2023-03-02T19:54:19.552Z,99844.70
2023-03-02T19:56:53.656Z,99846.82
2023-03-02T19:59:22.908Z,99845.64
2023-03-02T20:01:53.040Z,99846.86
2023-03-02T20:04:25.210Z,99847.25
2023-03-02T20:06:54.008Z,99846.71
2023-03-02T20:09:24.328Z,99845.22
2023-03-02T20:11:53.959Z,99839.63
2023-03-02T20:14:33.469Z,99841.86
2023-03-02T20:17:03.112Z,99844.83
2023-03-02T20:19:31.854Z,99840.13
2023-03-02T20:22:03.275Z,99838.16
2023-03-02T20:24:32.578Z,99838.74
2023-03-02T20:27:01.248Z,99838.65
2023-03-02T20:29:30.109Z,99839.05
2023-03-02T20:31:58.953Z,99833.59
2023-03-02T20:34:27.753Z,99831.33
2023-03-02T20:36:56.077Z,99823.98
2023-03-02T20:39:26.873Z,99821.94
2023-03-02T20:41:55.451Z,99815.88
2023-03-02T20:44:26.242Z,99815.27
2023-03-02T20:46:56.208Z,99811.75
2023-03-02T20:49:25.694Z,99808.52
2023-03-02T20:51:54.990Z,99810.20
2023-03-02T20:54:34.542Z,99805.70
2023-03-02T20:57:02.910Z,99800.67
2023-03-02T20:59:33.417Z,99799.65
2023-03-02T21:02:01.854Z,99802.42
2023-03-02T21:04:30.353Z,99801.98
2023-03-02T21:06:59.121Z,99804.64
2023-03-02T21:09:27.583Z,99798.23
2023-03-02T21:11:59.035Z,99800.27
2023-03-02T21:14:30.863Z,99800.95
2023-03-02T21:16:59.945Z,99795.39
2023-03-02T21:19:29.785Z,99792.68
2023-03-02T21:21:58.828Z,99794.76
2023-03-02T21:24:33.380Z,99796.40
2023-03-02T21:27:02.785Z,99793.82
2023-03-02T21:29:31.785Z,99793.25
2023-03-02T21:32:00.161Z,99790.92
2023-03-02T21:34:29.396Z,99786.77
2023-03-02T21:36:59.749Z,99783.13
2023-03-02T21:39:28.048Z,99783.19
2023-03-02T21:42:01.740Z,99781.53
2023-03-02T21:44:30.108Z,99781.75
2023-03-02T21:46:58.336Z,99791.07
2023-03-02T21:49:26.719Z,99790.70
2023-03-02T21:51:55.483Z,99788.42
2023-03-02T21:54:23.964Z,99788.67
2023-03-02T21:56:52.405Z,99785.48
2023-03-02T21:59:20.663Z,99785.89
2023-03-02T22:01:49.338Z,99784.78
2023-03-02T22:04:17.720Z,99787.00
2023-03-02T22:06:46.945Z,99785.37
2023-03-02T22:09:15.378Z,99786.06
2023-03-02T22:11:43.786Z,99782.55
2023-03-02T22:14:16.751Z,99777.58
2023-03-02T22:16:47.514Z,99779.54
2023-03-02T22:19:26.413Z,99779.05
2023-03-02T22:21:55.844Z,99779.40
2023-03-02T22:24:26.356Z,99777.80
2023-03-02T22:27:16.683Z,99776.91
2023-03-02T22:29:46.102Z,99773.39
2023-03-02T22:32:30.767Z,99776.83
2023-03-02T22:35:14.733Z,99779.14
2023-03-02T22:37:43.022Z,99776.73
2023-03-02T22:40:18.252Z,99774.44
2023-03-02T22:42:47.793Z,99772.48
2023-03-02T22:45:20.042Z,99766.25
2023-03-02T22:47:51.628Z,99768.05
2023-03-02T22:50:30.173Z,99771.34
2023-03-02T22:52:58.675Z,99767.11
2023-03-02T22:55:38.457Z,99768.02
2023-03-02T22:58:19.477Z,99768.33
2023-03-02T23:00:48.198Z,99765.07
2023-03-02T23:03:21.772Z,99754.23
2023-03-02T23:05:51.955Z,99753.09
2023-03-02T23:08:30.589Z,99752.25
2023-03-02T23:10:59.456Z,99753.75
2023-03-02T23:13:38.744Z,99749.23
2023-03-02T23:16:27.227Z,99747.92
2023-03-02T23:18:56.797Z,99745.60
2023-03-02T23:21:37.837Z,99743.16
2023-03-02T23:24:07.863Z,99740.79
2023-03-02T23:26:36.152Z,99743.48
2023-03-02T23:29:24.292Z,99738.38
2023-03-02T23:31:55.419Z,99738.35
2023-03-02T23:34:24.414Z,99742.77
2023-03-02T23:36:52.780Z,99738.66
2023-03-02T23:39:21.099Z,99737.54
2023-03-02T23:41:49.711Z,99738.58
2023-03-02T23:44:19.035Z,99733.73
2023-03-02T23:46:47.575Z,99733.98
2023-03-02T23:49:16.018Z,99728.77
2023-03-02T23:51:44.818Z,99727.95
2023-03-02T23:54:13.484Z,99725.04
2023-03-02T23:56:42.818Z,99725.88
2023-03-02T23:59:11.240Z,99724.62
